Antler, North Dakota
Current Conditions -  °F | °C
As of 12:28 AM on Saturday 20 Dec 2014 (Local Time) from KMIB Reporting Station
Freezing Drizzle Freezing Drizzle  
Wind Chill: 23°   Ceiling: 200
Heat Index: 23°   Visibility: 1.2mi
Dew Point: 23°   Wind: 2mph
Humidity: 100%   Direction: 230°SW
Pressure: 29.93"   Gusts: NA
Location:  48.97°N, 101.28°W
Report Text: KMIB 200628Z AUTO 23002KT 1 1/4SM R29/2600FT -FZDZ BR OVC002 M05/M05 A2993 RMK AO2 DZB0556 $
Loading
Personal Weather Stations






























Interactive Weather Map New forecast layout! Learn more

10-Day Weather Forecast

Advertisements
Track Severe Weather on mobile